Time;durP1;ratioP1;P1;durP2;ratioP2;P2;SDS_P1;SDS_P2;PMS_P1;PMS_P2;Temp;Humidity;BMP_temperature;BMP_pressure;BME280_temperature;BME280_humidity;BME280_pressure;Samples;Min_cycle;Max_cycle;Signal;HPM_P1;HPM_P2
2022/04/23 00:02:05;;;;;;;41.85;17.33;;;;;;;-149.78;100.00;50244.59;4890840;29;20033;-71
2022/04/23 00:04:30;;;;;;;40.17;17.40;;;;;;;-149.78;100.00;50209.38;4889313;29;20183;-71
2022/04/23 00:06:57;;;;;;;42.05;16.17;;;;;;;-149.78;100.00;50258.28;4889728;29;20653;-72
2022/04/23 00:09:22;;;;;;;42.47;18.58;;;;;;;-149.78;100.00;50283.69;4873885;29;20123;-71
2022/04/23 00:11:48;;;;;;;50.22;18.23;;;;;;;-149.78;100.00;50250.44;4891027;29;20127;-71
2022/04/23 00:14:14;;;;;;;40.88;18.15;;;;;;;-149.78;100.00;50248.50;4890516;29;20041;-71
2022/04/23 00:16:40;;;;;;;37.20;17.88;;;;;;;-149.78;100.00;50260.22;4889109;29;20131;-72
2022/04/23 00:19:06;;;;;;;38.83;17.50;;;;;;;-149.78;100.00;50270.00;4889115;29;20036;-71
2022/04/23 00:21:32;;;;;;;46.78;18.15;;;;;;;-149.78;100.00;50275.88;4890277;29;20108;-72
2022/04/23 00:23:57;;;;;;;45.85;17.75;;;;;;;-149.78;100.00;50244.59;4890297;29;20046;-71
2022/04/23 00:26:23;;;;;;;40.88;17.38;;;;;;;-149.78;100.00;50262.19;4889106;29;20227;-71
2022/04/23 00:28:49;;;;;;;43.25;18.10;;;;;;;-149.78;100.00;50268.03;4890419;29;20135;-71
2022/04/23 00:31:14;;;;;;;42.38;18.35;;;;;;;-149.78;100.00;50291.50;4890201;29;20047;-72
2022/04/23 00:33:40;;;;;;;40.42;17.30;;;;;;;-149.78;100.00;50264.13;4895146;29;20485;-72
2022/04/23 00:36:09;;;;;;;46.00;18.35;;;;;;;-149.78;100.00;50244.59;4893778;29;20485;-71
2022/04/23 00:38:40;;;;;;;47.03;18.13;;;;;;;-149.78;100.00;50252.41;4890006;29;20041;-71
2022/04/23 00:41:06;;;;;;;38.90;17.15;;;;;;;-149.78;100.00;50287.59;4890368;29;20457;-72
2022/04/23 00:43:36;;;;;;;46.65;17.75;;;;;;;-149.78;100.00;50244.59;4890286;29;20033;-72
2022/04/23 00:46:03;;;;;;;37.33;16.50;;;;;;;-149.78;100.00;50279.78;4890169;29;20489;-71
2022/04/23 00:48:29;;;;;;;47.53;17.35;;;;;;;-149.78;100.00;50248.50;4890189;29;20040;-71
2022/04/23 00:51:00;;;;;;;45.60;17.42;;;;;;;-149.78;100.00;50260.22;4890040;29;20052;-71
2022/04/23 00:53:27;;;;;;;43.28;18.70;;;;;;;-149.78;100.00;50279.78;4889934;29;20037;-71
2022/04/23 00:55:54;;;;;;;52.25;18.88;;;;;;;-149.78;100.00;50287.59;4890547;29;20033;-72
2022/04/23 00:58:20;;;;;;;45.63;18.05;;;;;;;-149.78;100.00;50260.22;4890510;29;20108;-71
2022/04/23 01:00:47;;;;;;;38.25;17.33;;;;;;;-149.78;100.00;50295.44;4888986;29;20024;-71
2022/04/23 01:03:13;;;;;;;44.63;18.30;;;;;;;-149.78;100.00;50262.19;4889077;29;20024;-71
2022/04/23 01:05:44;;;;;;;54.40;20.23;;;;;;;-149.78;100.00;50275.88;4889870;29;20051;-71
2022/04/23 01:08:15;;;;;;;46.17;18.55;;;;;;;-149.78;100.00;50244.59;4889393;29;20115;-71
2022/04/23 01:10:42;;;;;;;57.75;18.80;;;;;;;-149.78;100.00;50279.78;4890093;29;20044;-71
2022/04/23 01:13:08;;;;;;;39.90;17.50;;;;;;;-149.78;100.00;50275.88;4888507;29;20076;-72
2022/04/23 01:15:34;;;;;;;36.03;17.17;;;;;;;-149.78;100.00;50279.78;4889948;29;20032;-71
2022/04/23 01:17:59;;;;;;;41.42;18.67;;;;;;;-149.78;100.00;50264.13;4889537;29;20065;-71
2022/04/23 01:20:25;;;;;;;55.25;18.13;;;;;;;-149.78;100.00;50287.59;4873874;29;20037;-71
2022/04/23 01:22:51;;;;;;;39.10;17.92;;;;;;;-149.78;100.00;50262.19;4893327;29;20047;-72
2022/04/23 01:25:17;;;;;;;40.78;17.67;;;;;;;-149.78;100.00;50287.59;4892002;29;20092;-71
2022/04/23 01:27:48;;;;;;;49.72;19.80;;;;;;;-149.78;100.00;50279.78;4891365;29;20063;-71
2022/04/23 01:30:14;;;;;;;50.22;18.98;;;;;;;-149.78;100.00;50260.22;4888836;29;20132;-72
2022/04/23 01:32:40;;;;;;;50.20;18.13;;;;;;;-149.78;100.00;50228.94;4892874;29;20124;-71
2022/04/23 01:35:06;;;;;;;41.53;18.02;;;;;;;-149.78;100.00;50275.88;4892743;29;20490;-72
2022/04/23 01:37:32;;;;;;;44.70;18.15;;;;;;;-149.78;100.00;50244.59;4892299;29;20131;-72
2022/04/23 01:39:57;;;;;;;46.83;18.23;;;;;;;-149.78;100.00;50293.47;4894793;29;20176;-72
2022/04/23 01:42:23;;;;;;;51.67;17.98;;;;;;;-149.78;100.00;50283.69;4891432;29;20044;-72
2022/04/23 01:44:50;;;;;;;45.72;18.75;;;;;;;-149.78;100.00;50283.69;4890761;29;20065;-71
2022/04/23 01:47:17;;;;;;;46.55;18.10;;;;;;;-149.78;100.00;50279.78;4890634;29;20036;-71
2022/04/23 01:49:44;;;;;;;41.72;18.80;;;;;;;-149.78;100.00;50295.44;4891361;29;20040;-71
2022/04/23 01:52:13;;;;;;;43.80;18.40;;;;;;;-149.78;100.00;50268.03;4890969;29;20051;-72
2022/04/23 01:54:39;;;;;;;41.60;17.30;;;;;;;-149.78;100.00;50271.97;4892270;29;20108;-72
2022/04/23 01:57:05;;;;;;;42.90;17.45;;;;;;;-149.78;100.00;50252.41;4892118;29;20040;-71
2022/04/23 01:59:31;;;;;;;38.90;16.48;;;;;;;-149.78;100.00;50283.69;4891630;29;20073;-71
2022/04/23 02:01:58;;;;;;;38.50;14.82;;;;;;;-149.78;100.00;50268.03;4891551;29;20060;-71
2022/04/23 02:04:24;;;;;;;43.17;15.13;;;;;;;-149.78;100.00;50283.69;4890020;29;20393;-72
2022/04/23 02:06:51;;;;;;;40.72;14.85;;;;;;;-149.78;100.00;50244.59;4891177;29;20100;-71
2022/04/23 02:09:17;;;;;;;38.53;14.27;;;;;;;-149.78;100.00;50248.50;4891391;29;20033;-71
2022/04/23 02:11:43;;;;;;;35.10;14.27;;;;;;;-149.78;100.00;50309.13;4890184;29;20044;-71
2022/04/23 02:14:09;;;;;;;40.88;15.05;;;;;;;-149.78;100.00;50240.66;4890329;29;20156;-71
2022/04/23 02:16:35;;;;;;;39.25;15.20;;;;;;;-149.78;100.00;50279.78;4891210;29;20388;-71
2022/04/23 02:19:03;;;;;;;41.25;13.93;;;;;;;-149.78;100.00;50273.91;4890263;29;20043;-73
2022/04/23 02:21:30;;;;;;;31.27;12.65;;;;;;;-149.78;100.00;50283.69;4891539;29;20119;-73
2022/04/23 02:23:56;;;;;;;36.90;12.75;;;;;;;-149.78;100.00;50264.13;4890118;29;20047;-72
2022/04/23 02:26:22;;;;;;;29.45;12.38;;;;;;;-149.78;100.00;50287.59;4890164;29;20631;-73
2022/04/23 02:28:52;;;;;;;36.75;12.90;;;;;;;-149.78;100.00;50285.66;4890806;29;20036;-73
2022/04/23 02:31:18;;;;;;;36.88;12.13;;;;;;;-149.78;100.00;50307.16;4888948;29;20402;-73
2022/04/23 02:33:44;;;;;;;37.10;11.52;;;;;;;-149.78;100.00;50275.88;4893044;29;20065;-73
2022/04/23 02:36:11;;;;;;;37.78;12.80;;;;;;;-149.78;100.00;50266.09;4892152;29;20059;-73
2022/04/23 02:38:40;;;;;;;24.20;11.32;;;;;;;-149.78;100.00;50260.22;4891893;29;20044;-73
2022/04/23 02:41:06;;;;;;;29.55;10.95;;;;;;;-149.78;100.00;50266.09;4892292;29;20044;-73
2022/04/23 02:43:35;;;;;;;35.03;12.25;;;;;;;-149.78;100.00;50271.97;4890826;29;20643;-73
2022/04/23 02:46:05;;;;;;;42.85;12.13;;;;;;;-149.78;100.00;50256.31;4891443;29;20489;-73
2022/04/23 02:48:31;;;;;;;34.70;11.25;;;;;;;-149.78;100.00;50287.59;4891687;29;20548;-73
2022/04/23 02:50:57;;;;;;;36.83;12.10;;;;;;;-149.78;100.00;50248.50;4891768;29;20048;-72
2022/04/23 02:53:23;;;;;;;33.22;11.38;;;;;;;-149.78;100.00;50234.81;4891643;29;20171;-73
2022/04/23 02:55:49;;;;;;;33.60;11.13;;;;;;;-149.78;100.00;50262.19;4891516;29;20048;-73
2022/04/23 02:58:14;;;;;;;29.63;10.73;;;;;;;-149.78;100.00;50260.22;4890074;29;20066;-73
2022/04/23 03:00:43;;;;;;;30.08;11.65;;;;;;;-149.78;100.00;50309.13;4891297;29;20505;-73
2022/04/23 03:03:09;;;;;;;34.35;11.50;;;;;;;-149.78;100.00;50264.13;4891389;29;20033;-73
2022/04/23 03:05:35;;;;;;;39.92;11.85;;;;;;;-149.78;100.00;50256.31;4891387;29;20048;-73
2022/04/23 03:08:02;;;;;;;30.98;11.50;;;;;;;-149.78;100.00;50295.44;4891308;29;20485;-73
2022/04/23 03:10:30;;;;;;;31.80;11.63;;;;;;;-149.78;100.00;50258.28;4891021;29;20039;-72
2022/04/23 03:12:57;;;;;;;34.03;11.40;;;;;;;-149.78;100.00;50289.56;4890855;29;20503;-73
2022/04/23 03:15:24;;;;;;;40.20;12.27;;;;;;;-149.78;100.00;50252.41;4890866;29;20044;-73
2022/04/23 03:17:50;;;;;;;28.55;11.50;;;;;;;-149.78;100.00;50244.59;4891026;29;20040;-73
2022/04/23 03:20:16;;;;;;;30.52;11.80;;;;;;;-149.78;100.00;50287.59;4887444;29;20048;-73
2022/04/23 03:22:43;;;;;;;33.13;12.30;;;;;;;-149.78;100.00;50256.31;4890188;29;20079;-73
2022/04/23 03:25:11;;;;;;;35.75;11.98;;;;;;;-149.78;100.00;50299.34;4873255;29;20037;-73
2022/04/23 03:27:37;;;;;;;43.13;12.93;;;;;;;-149.78;100.00;50287.59;4888164;29;20048;-73
2022/04/23 03:30:04;;;;;;;28.67;10.85;;;;;;;-149.78;100.00;50258.28;4889645;29;20080;-73
2022/04/23 03:32:32;;;;;;;35.75;11.88;;;;;;;-149.78;100.00;50260.22;4890680;29;20094;-73
2022/04/23 03:34:59;;;;;;;47.42;15.02;;;;;;;-149.78;100.00;50291.50;4889167;29;20166;-73
2022/04/23 03:37:25;;;;;;;32.13;12.68;;;;;;;-149.78;100.00;50295.44;4891304;29;20044;-73
2022/04/23 03:39:51;;;;;;;31.75;12.32;;;;;;;-149.78;100.00;50311.06;4890429;29;20043;-74
2022/04/23 03:42:17;;;;;;;37.05;13.20;;;;;;;-149.78;100.00;50248.50;4887614;29;20040;-73
2022/04/23 03:44:43;;;;;;;40.38;11.77;;;;;;;-149.78;100.00;50283.69;4890049;29;20052;-73
2022/04/23 03:47:09;;;;;;;35.45;11.00;;;;;;;-149.78;100.00;50268.03;4888518;29;20044;-73
2022/04/23 03:49:35;;;;;;;40.47;11.70;;;;;;;-149.78;100.00;50297.38;4888186;29;20037;-73
2022/04/23 03:52:01;;;;;;;37.78;13.15;;;;;;;-149.78;100.00;50273.91;4889690;29;20032;-73
2022/04/23 03:54:26;;;;;;;39.65;11.48;;;;;;;-149.78;100.00;50260.22;4889883;29;20090;-73
2022/04/23 03:56:53;;;;;;;42.67;12.75;;;;;;;-149.78;100.00;50264.13;4889907;29;20041;-73
2022/04/23 03:59:23;;;;;;;25.45;11.48;;;;;;;-149.78;100.00;50240.66;4889489;29;20033;-73
2022/04/23 04:01:53;;;;;;;33.67;11.60;;;;;;;-149.78;100.00;50287.59;4889746;29;20037;-73
2022/04/23 04:04:19;;;;;;;46.65;12.07;;;;;;;-149.78;100.00;50248.50;4889668;29;20036;-73
2022/04/23 04:06:45;;;;;;;34.42;11.90;;;;;;;-149.78;100.00;50250.44;4889677;29;20051;-73
2022/04/23 04:09:11;;;;;;;32.78;11.43;;;;;;;-149.78;100.00;50281.75;4888303;29;20044;-74
2022/04/23 04:14:21;;;;;;;34.63;10.80;;;;;;;-149.78;100.00;50295.44;4889165;29;20481;-72
2022/04/23 04:16:47;;;;;;;36.45;10.88;;;;;;;-149.78;100.00;50279.78;4889493;29;20043;-73
2022/04/23 04:19:14;;;;;;;34.80;10.50;;;;;;;-149.78;100.00;50275.88;4889502;29;20044;-73
2022/04/23 04:21:43;;;;;;;29.52;10.02;;;;;;;-149.78;100.00;50236.75;4889559;29;20059;-73
2022/04/23 04:24:14;;;;;;;36.80;10.85;;;;;;;-149.78;100.00;50283.69;4889376;29;20039;-73
2022/04/23 04:26:46;;;;;;;39.30;10.25;;;;;;;-149.78;100.00;50287.59;4888419;29;20077;-73
2022/04/23 04:29:12;;;;;;;37.80;10.75;;;;;;;-149.78;100.00;50303.25;4888780;29;20176;-73
2022/04/23 04:31:48;;;;;;;39.30;10.80;;;;;;;-149.78;100.00;50256.31;4889700;29;20028;-73
2022/04/23 04:34:28;;;;;;;33.22;10.35;;;;;;;-149.78;100.00;50275.88;4890059;29;20037;-73
2022/04/23 04:37:20;;;;;;;25.80;10.32;;;;;;;-149.78;100.00;50287.59;4887892;29;20462;-73
2022/04/23 04:39:46;;;;;;;32.30;11.27;;;;;;;-149.78;100.00;50295.44;4884135;29;20436;-73
2022/04/23 04:42:12;;;;;;;36.83;10.70;;;;;;;-149.78;100.00;50270.00;4889498;29;20029;-73
2022/04/23 04:44:38;;;;;;;34.42;9.90;;;;;;;-149.78;100.00;50264.13;4872044;29;20527;-73
2022/04/23 04:47:05;;;;;;;34.05;10.43;;;;;;;-149.78;100.00;50287.59;4889118;29;20080;-73
2022/04/23 04:49:30;;;;;;;36.38;10.55;;;;;;;-149.78;100.00;50287.59;4887652;29;20056;-73
2022/04/23 04:51:56;;;;;;;31.27;9.40;;;;;;;-149.78;100.00;50256.31;4887862;29;20025;-73
2022/04/23 04:54:22;;;;;;;31.75;10.00;;;;;;;-149.78;100.00;50307.16;4891436;29;20400;-73
2022/04/23 04:56:52;;;;;;;27.80;9.55;;;;;;;-149.78;100.00;50252.41;4891620;29;20119;-73
2022/04/23 04:59:20;;;;;;;28.85;9.68;;;;;;;-149.78;100.00;50279.78;4893092;29;21278;-73
2022/04/23 05:01:47;;;;;;;30.48;9.77;;;;;;;-149.78;100.00;50291.50;4893168;29;20044;-73
2022/04/23 05:04:13;;;;;;;32.55;10.55;;;;;;;-149.78;100.00;50271.97;4893040;29;20028;-73
2022/04/23 05:06:38;;;;;;;45.42;12.48;;;;;;;-149.78;100.00;50268.03;4891483;29;20036;-73
2022/04/23 05:09:05;;;;;;;34.55;10.02;;;;;;;-149.78;100.00;50279.78;4872946;29;20084;-73
2022/04/23 05:11:31;;;;;;;26.27;9.48;;;;;;;-149.78;100.00;50293.47;4890925;29;20029;-73
2022/04/23 05:13:56;;;;;;;32.85;10.85;;;;;;;-149.78;100.00;50268.03;4889822;29;20434;-73
2022/04/23 05:16:22;;;;;;;25.77;9.43;;;;;;;-149.78;100.00;50307.16;4890164;29;20063;-73
2022/04/23 05:18:48;;;;;;;31.02;11.20;;;;;;;-149.78;100.00;50291.50;4889966;29;20041;-73
2022/04/23 05:21:14;;;;;;;31.10;9.60;;;;;;;-149.78;100.00;50264.13;4890489;29;20392;-73
2022/04/23 05:23:40;;;;;;;30.75;9.82;;;;;;;-149.78;100.00;50291.50;4889636;29;20039;-73
2022/04/23 05:26:06;;;;;;;35.30;9.77;;;;;;;-149.78;100.00;50264.13;4890384;29;20033;-72
2022/04/23 05:28:32;;;;;;;37.20;10.48;;;;;;;-149.78;100.00;50279.78;4876124;29;20116;-72
2022/04/23 05:30:58;;;;;;;36.38;10.25;;;;;;;-149.78;100.00;50275.88;4890083;29;20482;-73
2022/04/23 05:33:24;;;;;;;35.70;10.15;;;;;;;-149.78;100.00;50291.50;4888356;29;20056;-73
2022/04/23 05:35:50;;;;;;;29.75;10.75;;;;;;;-149.78;100.00;50268.03;4892589;29;20068;-72
2022/04/23 05:38:21;;;;;;;27.38;9.82;;;;;;;-149.78;100.00;50311.06;4893438;29;20064;-72
2022/04/23 05:40:47;;;;;;;36.60;9.75;;;;;;;-149.78;100.00;50252.41;4876719;29;20123;-72
2022/04/23 05:43:13;;;;;;;26.73;9.77;;;;;;;-149.78;100.00;50271.97;4892680;29;20056;-73
2022/04/23 05:45:39;;;;;;;28.83;10.10;;;;;;;-149.78;100.00;50322.81;4890656;29;20123;-73
2022/04/23 05:48:04;;;;;;;29.35;9.60;;;;;;;-149.78;100.00;50277.81;4889011;29;20079;-72
2022/04/23 05:50:30;;;;;;;27.42;9.95;;;;;;;-149.78;100.00;50295.44;4873633;29;20127;-73
2022/04/23 05:52:56;;;;;;;33.38;11.07;;;;;;;-149.78;100.00;50279.78;4872918;29;20040;-72
2022/04/23 05:55:22;;;;;;;25.88;10.48;;;;;;;-149.78;100.00;50271.97;4890357;29;20033;-74
2022/04/23 05:57:47;;;;;;;32.20;10.82;;;;;;;-149.78;100.00;50283.69;4889667;29;20434;-73
2022/04/23 06:00:14;;;;;;;29.02;10.00;;;;;;;-149.78;100.00;50289.56;4889313;29;20591;-73
2022/04/23 06:02:40;;;;;;;34.30;9.88;;;;;;;-149.78;100.00;50281.75;4888615;29;20029;-72
2022/04/23 06:05:06;;;;;;;32.53;10.27;;;;;;;-149.78;100.00;50295.44;4887619;29;20037;-72
2022/04/23 06:07:32;;;;;;;32.90;10.95;;;;;;;-149.78;100.00;50260.22;4888494;29;20700;-72
2022/04/23 06:10:00;;;;;;;23.50;9.65;;;;;;;-149.78;100.00;50287.59;4874322;29;20573;-72
2022/04/23 06:12:25;;;;;;;27.67;10.35;;;;;;;-149.78;100.00;50313.03;4889275;29;20041;-75
2022/04/23 06:14:51;;;;;;;27.38;10.68;;;;;;;-149.78;100.00;50303.25;4887932;29;20048;-74
2022/04/23 06:17:23;;;;;;;31.75;10.20;;;;;;;-149.78;100.00;50258.28;4890142;29;20045;-74
2022/04/23 06:19:49;;;;;;;37.25;10.90;;;;;;;-149.78;100.00;50285.66;4891896;29;20119;-74
2022/04/23 06:22:15;;;;;;;33.20;11.20;;;;;;;-149.78;100.00;50271.97;4874472;29;20048;-73
2022/04/23 06:24:41;;;;;;;30.05;10.02;;;;;;;-149.78;100.00;50271.97;4888444;29;20906;-73
2022/04/23 06:27:06;;;;;;;26.08;10.93;;;;;;;-149.78;100.00;50303.25;4890103;29;20032;-73
2022/04/23 06:29:32;;;;;;;35.72;12.60;;;;;;;-149.78;100.00;50291.50;4888613;29;20044;-73
2022/04/23 06:31:58;;;;;;;37.28;11.23;;;;;;;-149.78;100.00;50289.56;4873332;29;20073;-74
2022/04/23 06:34:24;;;;;;;42.10;12.20;;;;;;;-149.78;100.00;50268.03;4872991;29;20037;-74
2022/04/23 06:36:49;;;;;;;31.52;11.88;;;;;;;-149.78;100.00;50283.69;4889580;29;20041;-72
2022/04/23 06:39:15;;;;;;;41.42;11.30;;;;;;;-149.78;100.00;50268.03;4873288;29;20052;-72
2022/04/23 06:41:41;;;;;;;38.00;11.23;;;;;;;-149.78;100.00;50275.88;4888814;29;20043;-74
2022/04/23 06:44:06;;;;;;;36.85;11.38;;;;;;;-149.78;100.00;50303.25;4889032;29;20027;-74
2022/04/23 06:46:32;;;;;;;33.92;12.40;;;;;;;-149.78;100.00;50299.34;4889114;29;20189;-74
2022/04/23 06:49:00;;;;;;;38.53;10.88;;;;;;;-149.78;100.00;50287.59;4888470;29;20040;-72
2022/04/23 06:51:26;;;;;;;33.28;12.73;;;;;;;-149.78;100.00;50307.16;4890622;29;20104;-75
2022/04/23 06:53:51;;;;;;;28.13;11.70;;;;;;;-149.78;100.00;50277.81;4890559;29;20038;-75
2022/04/23 06:56:18;;;;;;;29.80;11.48;;;;;;;-149.78;100.00;50295.44;4888505;29;20044;-75
2022/04/23 06:58:46;;;;;;;37.42;12.75;;;;;;;-149.78;100.00;50305.22;4887476;29;20402;-75
2022/04/23 07:01:11;;;;;;;30.27;11.57;;;;;;;-149.78;100.00;50297.38;4889843;29;20059;-75
2022/04/23 07:03:38;;;;;;;34.40;11.57;;;;;;;-149.78;100.00;50303.25;4889584;29;20036;-76
2022/04/23 07:06:03;;;;;;;34.40;11.63;;;;;;;-149.78;100.00;50287.59;4888046;29;20044;-76
2022/04/23 07:08:29;;;;;;;31.90;11.45;;;;;;;-149.78;100.00;50291.50;4888982;29;20036;-71
2022/04/23 07:10:55;;;;;;;27.95;11.02;;;;;;;-149.78;100.00;50270.00;4889844;29;20030;-76
2022/04/23 07:13:21;;;;;;;33.08;12.82;;;;;;;-149.78;100.00;50311.06;4889923;29;20193;-74
2022/04/23 07:15:46;;;;;;;30.95;11.80;;;;;;;-149.78;100.00;50277.81;4874189;29;20045;-75
2022/04/23 07:18:12;;;;;;;31.27;11.82;;;;;;;-149.78;100.00;50250.44;4888632;29;20489;-74
2022/04/23 07:20:40;;;;;;;38.58;12.23;;;;;;;-149.78;100.00;50268.03;4890302;29;20040;-75
2022/04/23 07:25:52;;;;;;;39.70;14.32;;;;;;;-149.78;100.00;50303.25;4888568;29;20032;-75
2022/04/23 07:28:20;;;;;;;40.75;14.25;;;;;;;-149.78;100.00;50262.19;4887279;29;20064;-74
2022/04/23 07:30:47;;;;;;;41.05;15.95;;;;;;;-149.78;100.00;50287.59;4870973;29;20159;-75
2022/04/23 07:37:28;;;;;;;47.75;15.50;;;;;;;-149.78;100.00;50279.78;4888384;29;20061;-75
2022/04/23 07:38:42;;;;;;;35.30;13.23;;;;;;;-149.78;100.00;50307.16;4884757;29;20073;-75
2022/04/23 07:41:09;;;;;;;39.65;14.70;;;;;;;-149.78;100.00;50303.25;4886868;29;20040;-75
2022/04/23 07:43:34;;;;;;;33.90;14.15;;;;;;;-149.78;100.00;50287.59;4873379;29;20115;-75
2022/04/23 07:46:01;;;;;;;33.85;13.15;;;;;;;-149.78;100.00;50299.34;4887696;29;20104;-75
2022/04/23 07:48:26;;;;;;;39.17;14.52;;;;;;;-149.78;100.00;50279.78;4886328;29;20028;-75
2022/04/23 07:50:53;;;;;;;36.13;14.80;;;;;;;-149.78;100.00;50289.56;4886801;29;20699;-75
2022/04/23 07:53:19;;;;;;;35.00;14.15;;;;;;;-149.78;100.00;50307.16;4841211;29;20457;-75
2022/04/23 07:55:45;;;;;;;42.25;15.18;;;;;;;-149.78;100.00;50303.25;4870988;29;20084;-75
2022/04/23 07:58:14;;;;;;;38.08;14.73;;;;;;;-149.78;100.00;50283.69;4863599;29;20135;-75
2022/04/23 08:00:43;;;;;;;48.40;17.58;;;;;;;-149.78;100.00;50248.50;4886206;29;20167;-75
2022/04/23 08:03:09;;;;;;;38.42;16.45;;;;;;;-149.78;100.00;50287.59;4886397;29;20191;-74
2022/04/23 08:05:35;;;;;;;38.85;16.33;;;;;;;-149.78;100.00;50342.38;4886137;29;20045;-75
2022/04/23 08:08:02;;;;;;;40.97;17.05;;;;;;;-149.78;100.00;50279.78;4888309;29;20048;-76
2022/04/23 08:10:27;;;;;;;47.28;15.65;;;;;;;-149.78;100.00;50303.25;4872678;29;20045;-75
2022/04/23 08:12:56;;;;;;;36.95;16.38;;;;;;;-149.78;100.00;50266.09;4886264;29;20045;-73
2022/04/23 08:15:22;;;;;;;45.00;16.48;;;;;;;-149.78;100.00;50275.88;4888741;29;20100;-74
2022/04/23 08:17:48;;;;;;;46.65;15.52;;;;;;;-149.78;100.00;50252.41;4887655;29;20064;-74
2022/04/23 08:20:14;;;;;;;47.28;17.02;;;;;;;-149.78;100.00;50311.06;4888346;29;20063;-74
2022/04/23 08:22:40;;;;;;;35.42;16.30;;;;;;;-149.78;100.00;50264.13;4872571;29;20127;-74
2022/04/23 08:25:07;;;;;;;47.20;16.35;;;;;;;-149.78;100.00;50279.78;4872754;29;20486;-74
2022/04/23 08:27:54;;;;;;;37.85;14.98;;;;;;;-149.78;100.00;50279.78;4890218;29;20045;-73
2022/04/23 08:30:34;;;;;;;46.28;17.85;;;;;;;-149.78;100.00;50299.34;4892507;29;20024;-74
2022/04/23 08:33:09;;;;;;;43.45;16.15;;;;;;;-149.78;100.00;50262.19;4892854;29;20033;-74
2022/04/23 08:35:37;;;;;;;43.28;15.55;;;;;;;-149.78;100.00;50283.69;4890638;29;20577;-74
2022/04/23 08:38:04;;;;;;;47.53;15.95;;;;;;;-149.78;100.00;50277.81;4875734;29;20052;-74
2022/04/23 08:40:50;;;;;;;38.90;15.55;;;;;;;-149.78;100.00;50246.53;4886411;29;20028;-74
2022/04/23 08:43:16;;;;;;;42.03;17.02;;;;;;;-149.78;100.00;50279.78;4885069;29;20033;-75
2022/04/23 08:45:41;;;;;;;44.45;16.88;;;;;;;-149.78;100.00;50326.72;4884151;29;20055;-74
2022/04/23 08:48:11;;;;;;;42.80;17.90;;;;;;;-149.78;100.00;50271.97;4869234;29;20052;-74
2022/04/23 08:50:38;;;;;;;47.90;18.48;;;;;;;-149.78;100.00;50264.13;4885409;29;20036;-74
2022/04/23 08:53:20;;;;;;;45.85;16.52;;;;;;;-149.78;100.00;50314.97;4886080;29;20055;-74
2022/04/23 08:55:46;;;;;;;38.03;16.00;;;;;;;-149.78;100.00;50279.78;4885928;29;20069;-74
2022/04/23 08:58:17;;;;;;;45.00;16.83;;;;;;;-149.78;100.00;50271.97;4868191;29;20036;-75
2022/04/23 09:00:45;;;;;;;41.95;16.13;;;;;;;-149.78;100.00;50268.03;4886066;29;20037;-75
2022/04/23 09:03:17;;;;;;;45.05;17.88;;;;;;;-149.78;100.00;50295.44;4884806;29;20594;-75
2022/04/23 09:05:47;;;;;;;44.63;15.83;;;;;;;-149.78;100.00;50240.66;4866720;29;20037;-72
2022/04/23 09:08:13;;;;;;;43.88;16.38;;;;;;;-149.78;100.00;50275.88;4884818;29;20276;-73
2022/04/23 09:10:47;;;;;;;40.17;17.17;;;;;;;-149.78;100.00;50275.88;4882445;29;20393;-76
2022/04/23 09:13:30;;;;;;;46.13;17.15;;;;;;;-149.78;100.00;50268.03;4868457;29;20174;-75
2022/04/23 09:24:15;;;;;;;38.20;17.02;;;;;;;-149.78;100.00;50268.03;4882982;29;20119;-74
2022/04/23 09:26:41;;;;;;;46.90;17.58;;;;;;;-149.78;100.00;50248.50;4882178;29;20127;-74
2022/04/23 09:29:16;;;;;;;44.17;16.75;;;;;;;-149.78;100.00;50242.63;4879666;29;20493;-73
2022/04/23 09:31:42;;;;;;;47.03;17.73;;;;;;;-149.78;100.00;50260.22;4850071;29;20040;-74
2022/04/23 09:34:15;;;;;;;45.17;18.10;;;;;;;-149.78;100.00;50260.22;4881034;29;20222;-76
2022/04/23 09:36:57;;;;;;;51.13;19.80;;;;;;;-149.78;100.00;50217.19;4883320;29;20040;-76
2022/04/23 09:39:35;;;;;;;46.85;18.05;;;;;;;-149.78;100.00;50256.31;4881115;29;20038;-74
2022/04/23 09:42:18;;;;;;;43.00;18.10;;;;;;;-149.78;100.00;50289.56;4865217;29;20140;-73
2022/04/23 09:44:46;;;;;;;49.58;17.77;;;;;;;-149.78;100.00;50234.81;4882598;29;20040;-72
2022/04/23 09:47:28;;;;;;;43.05;18.25;;;;;;;-149.78;100.00;50230.88;4865807;29;20930;-73
2022/04/23 09:49:54;;;;;;;48.13;18.20;;;;;;;-149.78;100.00;50248.50;4882113;29;20438;-75
2022/04/23 09:52:27;;;;;;;36.35;17.40;;;;;;;-149.78;100.00;50271.97;4867135;29;20081;-74
2022/04/23 09:54:55;;;;;;;36.30;16.98;;;;;;;-149.78;100.00;50256.31;4883790;29;20036;-74
2022/04/23 09:57:22;;;;;;;43.65;18.40;;;;;;;-149.78;100.00;50234.81;4884373;29;20040;-75
2022/04/23 09:59:52;;;;;;;39.92;19.17;;;;;;;-149.78;100.00;50283.69;4864573;29;20051;-75
2022/04/23 10:02:19;;;;;;;44.97;19.20;;;;;;;-149.78;100.00;50295.44;4882915;29;20143;-76
2022/04/23 10:04:46;;;;;;;46.55;19.33;;;;;;;-149.78;100.00;50270.00;4882805;29;20494;-74
2022/04/23 10:07:17;;;;;;;48.88;23.40;;;;;;;-149.78;100.00;50256.31;4880984;29;20157;-75
2022/04/23 10:09:45;;;;;;;59.55;26.80;;;;;;;-149.78;100.00;50248.50;4880786;29;20626;-74
2022/04/23 10:12:18;;;;;;;52.15;24.05;;;;;;;-149.78;100.00;50264.13;4883249;29;20672;-73
2022/04/23 10:14:57;;;;;;;45.13;19.88;;;;;;;-149.78;100.00;50264.13;4881434;29;20180;-71
2022/04/23 10:17:28;;;;;;;42.17;20.88;;;;;;;-149.78;100.00;50252.41;4879492;29;20120;-75
2022/04/23 10:19:55;;;;;;;48.58;21.83;;;;;;;-149.78;100.00;50232.84;4881710;29;20041;-71
2022/04/23 10:22:31;;;;;;;48.45;21.27;;;;;;;-149.78;100.00;50273.91;4879859;29;20080;-73
2022/04/23 10:25:07;;;;;;;53.67;21.05;;;;;;;-149.78;100.00;50264.13;4864833;29;20193;-74
2022/04/23 10:27:34;;;;;;;50.97;19.10;;;;;;;-149.78;100.00;50252.41;4880636;29;20613;-75
2022/04/23 10:30:04;;;;;;;43.28;19.20;;;;;;;-149.78;100.00;50275.88;4881102;29;20101;-73
2022/04/23 10:32:41;;;;;;;47.72;20.45;;;;;;;-149.78;100.00;50252.41;4866572;29;20083;-71
2022/04/23 10:35:19;;;;;;;41.35;18.98;;;;;;;-149.78;100.00;50260.22;4882117;29;20041;-75
2022/04/23 10:37:48;;;;;;;36.53;18.30;;;;;;;-149.78;100.00;50213.28;4882729;29;20072;-72
2022/04/23 10:40:17;;;;;;;45.90;19.10;;;;;;;-149.78;100.00;50260.22;4879494;29;20040;-73
2022/04/23 10:43:10;;;;;;;44.65;20.20;;;;;;;-149.78;100.00;50244.59;4878332;29;20024;-75
2022/04/23 10:45:38;;;;;;;54.45;22.30;;;;;;;-149.78;100.00;50262.19;4876936;29;20140;-73
2022/04/23 10:48:25;;;;;;;49.50;21.10;;;;;;;-149.78;100.00;50256.31;4878162;29;20519;-74
2022/04/23 10:51:01;;;;;;;50.00;19.40;;;;;;;-149.78;100.00;50225.03;4878453;29;20032;-73
2022/04/23 10:53:48;;;;;;;45.38;18.23;;;;;;;-149.78;100.00;50252.41;4879254;29;20602;-74
2022/04/23 10:56:19;;;;;;;47.00;20.55;;;;;;;-149.78;100.00;50283.69;4875805;29;20067;-72
2022/04/23 10:58:45;;;;;;;44.80;18.55;;;;;;;-149.78;100.00;50228.94;4879694;29;20044;-76
2022/04/23 11:01:24;;;;;;;41.15;17.95;;;;;;;-149.78;100.00;50270.00;4877402;29;20038;-73
2022/04/23 11:04:10;;;;;;;40.35;18.98;;;;;;;-149.78;100.00;50264.13;4877355;29;20064;-74
2022/04/23 11:12:56;;;;;;;42.90;18.85;;;;;;;-149.78;100.00;50283.69;4822027;29;20065;-73
2022/04/23 11:15:22;;;;;;;44.25;19.48;;;;;;;-149.78;100.00;50221.13;4851621;29;20389;-73
2022/04/23 11:17:58;;;;;;;44.95;18.65;;;;;;;-149.78;100.00;50246.53;4864150;29;20044;-73
2022/04/23 11:20:29;;;;;;;39.67;18.95;;;;;;;-149.78;100.00;50271.97;4863840;29;20417;-73
2022/04/23 11:22:55;;;;;;;42.85;18.85;;;;;;;-149.78;100.00;50248.50;4881074;29;20096;-74